sensor_id;sensor_type;location;lat;lon;timestamp;P1;durP1;ratioP1;P2;durP2;ratioP2
74974;SDS011;68459;50.836;19.138;2023-12-29T00:02:25;15.65;;;7.75;;
74974;SDS011;68459;50.836;19.138;2023-12-29T00:05:29;14.95;;;7.15;;
74974;SDS011;68459;50.836;19.138;2023-12-29T00:08:33;14.55;;;7.10;;
74974;SDS011;68459;50.836;19.138;2023-12-29T00:11:36;15.63;;;7.03;;
74974;SDS011;68459;50.836;19.138;2023-12-29T00:14:41;14.18;;;6.82;;
74974;SDS011;68459;50.836;19.138;2023-12-29T00:17:46;12.65;;;6.15;;
74974;SDS011;68459;50.836;19.138;2023-12-29T00:20:51;13.43;;;6.90;;
74974;SDS011;68459;50.836;19.138;2023-12-29T00:24:08;12.88;;;7.20;;
74974;SDS011;68459;50.836;19.138;2023-12-29T00:27:13;13.95;;;6.97;;
74974;SDS011;68459;50.836;19.138;2023-12-29T00:30:17;12.32;;;6.85;;
74974;SDS011;68459;50.836;19.138;2023-12-29T00:33:23;12.48;;;6.22;;
74974;SDS011;68459;50.836;19.138;2023-12-29T00:36:27;13.10;;;6.85;;
74974;SDS011;68459;50.836;19.138;2023-12-29T00:39:31;12.95;;;6.43;;
74974;SDS011;68459;50.836;19.138;2023-12-29T00:42:41;12.53;;;6.53;;
74974;SDS011;68459;50.836;19.138;2023-12-29T00:45:45;9.73;;;5.50;;
74974;SDS011;68459;50.836;19.138;2023-12-29T00:48:50;11.13;;;5.95;;
74974;SDS011;68459;50.836;19.138;2023-12-29T00:51:55;11.13;;;6.20;;
74974;SDS011;68459;50.836;19.138;2023-12-29T00:54:58;13.32;;;5.88;;
74974;SDS011;68459;50.836;19.138;2023-12-29T00:58:02;12.20;;;6.55;;
74974;SDS011;68459;50.836;19.138;2023-12-29T01:01:07;11.65;;;6.10;;
74974;SDS011;68459;50.836;19.138;2023-12-29T01:04:15;13.40;;;6.25;;
74974;SDS011;68459;50.836;19.138;2023-12-29T01:07:19;11.07;;;5.97;;
74974;SDS011;68459;50.836;19.138;2023-12-29T01:10:23;10.52;;;5.47;;
74974;SDS011;68459;50.836;19.138;2023-12-29T01:13:27;12.53;;;6.20;;
74974;SDS011;68459;50.836;19.138;2023-12-29T01:16:31;10.93;;;5.97;;
74974;SDS011;68459;50.836;19.138;2023-12-29T01:19:36;11.60;;;6.07;;
74974;SDS011;68459;50.836;19.138;2023-12-29T01:22:40;12.40;;;6.43;;
74974;SDS011;68459;50.836;19.138;2023-12-29T01:25:44;10.48;;;6.03;;
74974;SDS011;68459;50.836;19.138;2023-12-29T01:28:48;10.13;;;5.97;;
74974;SDS011;68459;50.836;19.138;2023-12-29T01:31:52;13.63;;;6.22;;
74974;SDS011;68459;50.836;19.138;2023-12-29T01:34:57;10.02;;;5.85;;
74974;SDS011;68459;50.836;19.138;2023-12-29T01:38:02;9.88;;;6.07;;
74974;SDS011;68459;50.836;19.138;2023-12-29T01:41:06;10.15;;;5.93;;
74974;SDS011;68459;50.836;19.138;2023-12-29T01:47:32;12.43;;;6.50;;
74974;SDS011;68459;50.836;19.138;2023-12-29T01:50:37;12.75;;;5.88;;
74974;SDS011;68459;50.836;19.138;2023-12-29T01:53:43;11.93;;;6.57;;
74974;SDS011;68459;50.836;19.138;2023-12-29T01:56:49;17.05;;;7.05;;
74974;SDS011;68459;50.836;19.138;2023-12-29T01:59:57;13.48;;;6.75;;
74974;SDS011;68459;50.836;19.138;2023-12-29T02:03:01;15.15;;;7.80;;
74974;SDS011;68459;50.836;19.138;2023-12-29T02:06:06;12.88;;;7.13;;
74974;SDS011;68459;50.836;19.138;2023-12-29T02:09:12;14.13;;;7.05;;
74974;SDS011;68459;50.836;19.138;2023-12-29T02:12:19;13.65;;;7.65;;
74974;SDS011;68459;50.836;19.138;2023-12-29T02:15:23;16.40;;;7.40;;
74974;SDS011;68459;50.836;19.138;2023-12-29T02:18:27;11.05;;;6.88;;
74974;SDS011;68459;50.836;19.138;2023-12-29T02:21:38;12.60;;;6.05;;
74974;SDS011;68459;50.836;19.138;2023-12-29T02:24:45;11.83;;;6.90;;
74974;SDS011;68459;50.836;19.138;2023-12-29T02:27:50;15.00;;;6.10;;
74974;SDS011;68459;50.836;19.138;2023-12-29T02:31:00;10.65;;;6.25;;
74974;SDS011;68459;50.836;19.138;2023-12-29T02:34:10;13.93;;;7.18;;
74974;SDS011;68459;50.836;19.138;2023-12-29T02:37:17;12.23;;;6.28;;
74974;SDS011;68459;50.836;19.138;2023-12-29T02:40:24;12.65;;;6.75;;
74974;SDS011;68459;50.836;19.138;2023-12-29T02:43:30;11.73;;;6.68;;
74974;SDS011;68459;50.836;19.138;2023-12-29T02:46:34;10.50;;;6.20;;
74974;SDS011;68459;50.836;19.138;2023-12-29T02:49:38;12.65;;;6.70;;
74974;SDS011;68459;50.836;19.138;2023-12-29T02:52:42;13.82;;;6.70;;
74974;SDS011;68459;50.836;19.138;2023-12-29T02:55:48;11.93;;;6.67;;
74974;SDS011;68459;50.836;19.138;2023-12-29T02:58:52;14.52;;;7.57;;
74974;SDS011;68459;50.836;19.138;2023-12-29T03:01:56;13.00;;;6.70;;
74974;SDS011;68459;50.836;19.138;2023-12-29T03:04:59;10.40;;;5.60;;
74974;SDS011;68459;50.836;19.138;2023-12-29T03:08:04;8.85;;;5.45;;
74974;SDS011;68459;50.836;19.138;2023-12-29T03:11:10;12.43;;;5.75;;
74974;SDS011;68459;50.836;19.138;2023-12-29T03:14:14;10.98;;;6.13;;
74974;SDS011;68459;50.836;19.138;2023-12-29T03:17:18;5.27;;;3.20;;
74974;SDS011;68459;50.836;19.138;2023-12-29T03:20:23;9.77;;;5.72;;
74974;SDS011;68459;50.836;19.138;2023-12-29T03:23:29;13.13;;;5.88;;
74974;SDS011;68459;50.836;19.138;2023-12-29T03:26:34;11.53;;;6.00;;
74974;SDS011;68459;50.836;19.138;2023-12-29T03:29:38;12.10;;;6.50;;
74974;SDS011;68459;50.836;19.138;2023-12-29T03:32:42;12.88;;;6.07;;
74974;SDS011;68459;50.836;19.138;2023-12-29T03:35:46;8.48;;;5.65;;
74974;SDS011;68459;50.836;19.138;2023-12-29T03:38:50;14.15;;;5.93;;
74974;SDS011;68459;50.836;19.138;2023-12-29T03:41:55;11.10;;;6.07;;
74974;SDS011;68459;50.836;19.138;2023-12-29T03:44:59;10.65;;;6.05;;
74974;SDS011;68459;50.836;19.138;2023-12-29T03:48:03;9.47;;;5.20;;
74974;SDS011;68459;50.836;19.138;2023-12-29T03:51:09;11.20;;;6.45;;
74974;SDS011;68459;50.836;19.138;2023-12-29T03:54:12;11.75;;;5.88;;
74974;SDS011;68459;50.836;19.138;2023-12-29T03:57:18;10.00;;;5.40;;
74974;SDS011;68459;50.836;19.138;2023-12-29T04:00:21;10.70;;;5.15;;
74974;SDS011;68459;50.836;19.138;2023-12-29T04:03:25;11.55;;;5.97;;
74974;SDS011;68459;50.836;19.138;2023-12-29T04:06:29;12.43;;;6.65;;
74974;SDS011;68459;50.836;19.138;2023-12-29T04:09:34;10.32;;;5.90;;
74974;SDS011;68459;50.836;19.138;2023-12-29T04:12:39;8.90;;;4.38;;
74974;SDS011;68459;50.836;19.138;2023-12-29T04:15:43;11.18;;;5.15;;
74974;SDS011;68459;50.836;19.138;2023-12-29T04:18:47;8.73;;;4.43;;
74974;SDS011;68459;50.836;19.138;2023-12-29T04:21:51;9.95;;;5.30;;
74974;SDS011;68459;50.836;19.138;2023-12-29T04:24:55;11.88;;;5.50;;
74974;SDS011;68459;50.836;19.138;2023-12-29T04:28:00;13.60;;;5.87;;
74974;SDS011;68459;50.836;19.138;2023-12-29T04:31:04;9.23;;;4.78;;
74974;SDS011;68459;50.836;19.138;2023-12-29T04:34:09;10.57;;;5.50;;
74974;SDS011;68459;50.836;19.138;2023-12-29T04:37:13;10.93;;;5.78;;
74974;SDS011;68459;50.836;19.138;2023-12-29T04:40:17;9.77;;;5.38;;
74974;SDS011;68459;50.836;19.138;2023-12-29T04:43:22;10.20;;;5.63;;
74974;SDS011;68459;50.836;19.138;2023-12-29T04:46:26;10.50;;;5.65;;
74974;SDS011;68459;50.836;19.138;2023-12-29T04:49:30;12.63;;;6.40;;
74974;SDS011;68459;50.836;19.138;2023-12-29T04:52:34;11.65;;;6.45;;
74974;SDS011;68459;50.836;19.138;2023-12-29T04:55:38;10.82;;;5.78;;
74974;SDS011;68459;50.836;19.138;2023-12-29T04:58:44;11.23;;;6.03;;
74974;SDS011;68459;50.836;19.138;2023-12-29T05:01:47;8.13;;;5.25;;
74974;SDS011;68459;50.836;19.138;2023-12-29T05:04:51;10.48;;;5.70;;
74974;SDS011;68459;50.836;19.138;2023-12-29T05:07:55;10.05;;;5.65;;
74974;SDS011;68459;50.836;19.138;2023-12-29T05:11:00;10.27;;;5.88;;
74974;SDS011;68459;50.836;19.138;2023-12-29T05:14:05;10.98;;;5.93;;
74974;SDS011;68459;50.836;19.138;2023-12-29T05:17:09;11.70;;;6.07;;
74974;SDS011;68459;50.836;19.138;2023-12-29T05:20:12;9.97;;;5.60;;
74974;SDS011;68459;50.836;19.138;2023-12-29T05:23:17;10.35;;;6.38;;
74974;SDS011;68459;50.836;19.138;2023-12-29T05:26:20;10.13;;;5.85;;
74974;SDS011;68459;50.836;19.138;2023-12-29T05:29:26;14.57;;;6.97;;
74974;SDS011;68459;50.836;19.138;2023-12-29T05:32:29;12.25;;;5.38;;
74974;SDS011;68459;50.836;19.138;2023-12-29T05:35:34;9.52;;;5.65;;
74974;SDS011;68459;50.836;19.138;2023-12-29T05:38:38;15.65;;;6.38;;
74974;SDS011;68459;50.836;19.138;2023-12-29T05:41:43;14.05;;;6.22;;
74974;SDS011;68459;50.836;19.138;2023-12-29T05:44:48;11.93;;;6.68;;
74974;SDS011;68459;50.836;19.138;2023-12-29T05:47:53;12.45;;;7.20;;
74974;SDS011;68459;50.836;19.138;2023-12-29T05:50:56;15.17;;;7.07;;
74974;SDS011;68459;50.836;19.138;2023-12-29T05:54:00;11.23;;;6.07;;
74974;SDS011;68459;50.836;19.138;2023-12-29T05:57:04;13.25;;;6.45;;
74974;SDS011;68459;50.836;19.138;2023-12-29T06:00:10;11.27;;;5.97;;
74974;SDS011;68459;50.836;19.138;2023-12-29T06:03:16;12.57;;;6.32;;
74974;SDS011;68459;50.836;19.138;2023-12-29T06:06:20;13.93;;;6.70;;
74974;SDS011;68459;50.836;19.138;2023-12-29T06:09:24;11.32;;;6.40;;
74974;SDS011;68459;50.836;19.138;2023-12-29T06:12:28;11.20;;;6.25;;
74974;SDS011;68459;50.836;19.138;2023-12-29T06:15:35;12.93;;;6.28;;
74974;SDS011;68459;50.836;19.138;2023-12-29T06:18:40;12.20;;;6.53;;
74974;SDS011;68459;50.836;19.138;2023-12-29T06:21:44;11.23;;;7.17;;
74974;SDS011;68459;50.836;19.138;2023-12-29T06:24:49;15.10;;;7.43;;
74974;SDS011;68459;50.836;19.138;2023-12-29T06:27:53;11.15;;;6.97;;
74974;SDS011;68459;50.836;19.138;2023-12-29T06:30:59;11.80;;;7.07;;
74974;SDS011;68459;50.836;19.138;2023-12-29T06:34:03;15.85;;;8.02;;
74974;SDS011;68459;50.836;19.138;2023-12-29T06:37:07;19.00;;;8.45;;
74974;SDS011;68459;50.836;19.138;2023-12-29T06:40:11;12.80;;;7.35;;
74974;SDS011;68459;50.836;19.138;2023-12-29T06:43:16;12.38;;;7.15;;
74974;SDS011;68459;50.836;19.138;2023-12-29T06:46:20;17.00;;;6.32;;
74974;SDS011;68459;50.836;19.138;2023-12-29T06:49:25;11.57;;;5.90;;
74974;SDS011;68459;50.836;19.138;2023-12-29T06:52:29;13.27;;;5.87;;
74974;SDS011;68459;50.836;19.138;2023-12-29T06:55:36;11.30;;;6.10;;
74974;SDS011;68459;50.836;19.138;2023-12-29T06:58:39;10.38;;;6.10;;
74974;SDS011;68459;50.836;19.138;2023-12-29T07:01:45;8.70;;;5.20;;
74974;SDS011;68459;50.836;19.138;2023-12-29T07:04:49;9.25;;;5.70;;
74974;SDS011;68459;50.836;19.138;2023-12-29T07:07:53;10.70;;;6.50;;
74974;SDS011;68459;50.836;19.138;2023-12-29T07:10:56;9.98;;;5.57;;
74974;SDS011;68459;50.836;19.138;2023-12-29T07:14:01;13.50;;;6.38;;
74974;SDS011;68459;50.836;19.138;2023-12-29T07:17:06;12.60;;;7.05;;
74974;SDS011;68459;50.836;19.138;2023-12-29T07:20:10;12.93;;;6.10;;
74974;SDS011;68459;50.836;19.138;2023-12-29T07:23:14;11.67;;;7.07;;
74974;SDS011;68459;50.836;19.138;2023-12-29T07:26:18;10.60;;;7.07;;
74974;SDS011;68459;50.836;19.138;2023-12-29T07:29:22;13.80;;;6.65;;
74974;SDS011;68459;50.836;19.138;2023-12-29T07:32:27;12.73;;;7.00;;
74974;SDS011;68459;50.836;19.138;2023-12-29T07:35:31;17.48;;;6.70;;
74974;SDS011;68459;50.836;19.138;2023-12-29T07:38:35;14.65;;;6.63;;
74974;SDS011;68459;50.836;19.138;2023-12-29T07:41:39;11.68;;;6.40;;
74974;SDS011;68459;50.836;19.138;2023-12-29T07:44:44;9.98;;;5.88;;
74974;SDS011;68459;50.836;19.138;2023-12-29T07:47:49;11.02;;;5.63;;
74974;SDS011;68459;50.836;19.138;2023-12-29T07:50:53;11.80;;;5.97;;
74974;SDS011;68459;50.836;19.138;2023-12-29T07:54:00;9.40;;;4.73;;
74974;SDS011;68459;50.836;19.138;2023-12-29T07:57:04;11.13;;;5.18;;
74974;SDS011;68459;50.836;19.138;2023-12-29T08:00:08;9.98;;;4.60;;
74974;SDS011;68459;50.836;19.138;2023-12-29T08:03:15;8.17;;;4.53;;
74974;SDS011;68459;50.836;19.138;2023-12-29T08:06:19;8.73;;;5.15;;
74974;SDS011;68459;50.836;19.138;2023-12-29T08:09:23;7.90;;;4.57;;
74974;SDS011;68459;50.836;19.138;2023-12-29T08:12:27;7.05;;;4.05;;
74974;SDS011;68459;50.836;19.138;2023-12-29T08:15:31;8.63;;;3.60;;
74974;SDS011;68459;50.836;19.138;2023-12-29T08:18:37;8.60;;;4.45;;
74974;SDS011;68459;50.836;19.138;2023-12-29T08:21:41;9.35;;;4.65;;
74974;SDS011;68459;50.836;19.138;2023-12-29T08:24:45;6.33;;;3.40;;
74974;SDS011;68459;50.836;19.138;2023-12-29T08:27:49;7.53;;;3.33;;
74974;SDS011;68459;50.836;19.138;2023-12-29T08:30:52;8.05;;;3.60;;
74974;SDS011;68459;50.836;19.138;2023-12-29T08:33:58;6.80;;;3.53;;
74974;SDS011;68459;50.836;19.138;2023-12-29T08:37:02;7.28;;;3.80;;
74974;SDS011;68459;50.836;19.138;2023-12-29T08:40:07;6.20;;;3.25;;
74974;SDS011;68459;50.836;19.138;2023-12-29T08:43:12;6.03;;;3.65;;
74974;SDS011;68459;50.836;19.138;2023-12-29T08:46:16;9.77;;;4.10;;
74974;SDS011;68459;50.836;19.138;2023-12-29T08:49:21;9.43;;;4.07;;
74974;SDS011;68459;50.836;19.138;2023-12-29T08:52:25;7.32;;;3.70;;
74974;SDS011;68459;50.836;19.138;2023-12-29T08:55:29;7.30;;;3.97;;
74974;SDS011;68459;50.836;19.138;2023-12-29T08:58:34;7.72;;;4.35;;
74974;SDS011;68459;50.836;19.138;2023-12-29T09:01:37;9.13;;;4.50;;
74974;SDS011;68459;50.836;19.138;2023-12-29T09:04:43;8.30;;;4.20;;
74974;SDS011;68459;50.836;19.138;2023-12-29T09:07:47;7.50;;;4.20;;
74974;SDS011;68459;50.836;19.138;2023-12-29T09:10:51;8.75;;;4.40;;
74974;SDS011;68459;50.836;19.138;2023-12-29T09:13:54;8.95;;;4.72;;
74974;SDS011;68459;50.836;19.138;2023-12-29T09:16:58;9.65;;;3.85;;
74974;SDS011;68459;50.836;19.138;2023-12-29T09:20:04;8.57;;;4.40;;
74974;SDS011;68459;50.836;19.138;2023-12-29T09:23:12;8.15;;;4.38;;
74974;SDS011;68459;50.836;19.138;2023-12-29T09:26:16;8.73;;;3.80;;
74974;SDS011;68459;50.836;19.138;2023-12-29T09:29:20;7.72;;;4.03;;
74974;SDS011;68459;50.836;19.138;2023-12-29T09:32:24;10.05;;;4.90;;
74974;SDS011;68459;50.836;19.138;2023-12-29T09:35:29;10.13;;;4.80;;
74974;SDS011;68459;50.836;19.138;2023-12-29T09:38:36;7.38;;;4.00;;
74974;SDS011;68459;50.836;19.138;2023-12-29T09:41:42;11.15;;;4.53;;
74974;SDS011;68459;50.836;19.138;2023-12-29T09:44:49;10.18;;;4.57;;
74974;SDS011;68459;50.836;19.138;2023-12-29T09:47:54;10.73;;;4.05;;
74974;SDS011;68459;50.836;19.138;2023-12-29T09:51:02;7.78;;;4.00;;
74974;SDS011;68459;50.836;19.138;2023-12-29T09:54:07;7.47;;;3.28;;
74974;SDS011;68459;50.836;19.138;2023-12-29T09:57:15;6.97;;;3.60;;
74974;SDS011;68459;50.836;19.138;2023-12-29T10:00:21;7.45;;;3.70;;
74974;SDS011;68459;50.836;19.138;2023-12-29T10:03:25;6.05;;;3.22;;
74974;SDS011;68459;50.836;19.138;2023-12-29T10:06:31;8.07;;;3.53;;
74974;SDS011;68459;50.836;19.138;2023-12-29T10:09:39;7.25;;;3.53;;
74974;SDS011;68459;50.836;19.138;2023-12-29T10:12:47;6.28;;;3.78;;
74974;SDS011;68459;50.836;19.138;2023-12-29T10:15:53;7.50;;;3.58;;
74974;SDS011;68459;50.836;19.138;2023-12-29T10:19:07;9.55;;;2.83;;
74974;SDS011;68459;50.836;19.138;2023-12-29T10:22:24;8.20;;;3.40;;
74974;SDS011;68459;50.836;19.138;2023-12-29T10:25:36;6.40;;;3.58;;
74974;SDS011;68459;50.836;19.138;2023-12-29T10:28:39;6.30;;;3.00;;
74974;SDS011;68459;50.836;19.138;2023-12-29T10:31:44;6.55;;;3.40;;
74974;SDS011;68459;50.836;19.138;2023-12-29T10:34:48;7.15;;;3.17;;
74974;SDS011;68459;50.836;19.138;2023-12-29T10:37:53;5.87;;;2.77;;
74974;SDS011;68459;50.836;19.138;2023-12-29T10:41:09;7.97;;;3.78;;
74974;SDS011;68459;50.836;19.138;2023-12-29T10:44:16;6.30;;;3.03;;
74974;SDS011;68459;50.836;19.138;2023-12-29T10:47:20;8.23;;;3.40;;
74974;SDS011;68459;50.836;19.138;2023-12-29T10:50:27;6.63;;;2.72;;
74974;SDS011;68459;50.836;19.138;2023-12-29T10:53:33;7.55;;;3.65;;
74974;SDS011;68459;50.836;19.138;2023-12-29T10:56:42;6.75;;;3.03;;
74974;SDS011;68459;50.836;19.138;2023-12-29T10:59:48;8.60;;;3.07;;
74974;SDS011;68459;50.836;19.138;2023-12-29T11:02:58;5.07;;;3.20;;
74974;SDS011;68459;50.836;19.138;2023-12-29T11:06:02;7.70;;;3.47;;
74974;SDS011;68459;50.836;19.138;2023-12-29T11:09:08;7.03;;;3.13;;
74974;SDS011;68459;50.836;19.138;2023-12-29T11:12:13;7.43;;;3.55;;
74974;SDS011;68459;50.836;19.138;2023-12-29T11:15:19;4.03;;;2.30;;
74974;SDS011;68459;50.836;19.138;2023-12-29T11:18:23;10.75;;;4.45;;
74974;SDS011;68459;50.836;19.138;2023-12-29T11:21:30;5.03;;;2.85;;
74974;SDS011;68459;50.836;19.138;2023-12-29T11:24:36;12.10;;;3.47;;
74974;SDS011;68459;50.836;19.138;2023-12-29T11:27:45;5.72;;;2.95;;
74974;SDS011;68459;50.836;19.138;2023-12-29T11:30:48;5.40;;;2.87;;
74974;SDS011;68459;50.836;19.138;2023-12-29T11:34:00;6.03;;;3.10;;
74974;SDS011;68459;50.836;19.138;2023-12-29T11:37:15;6.75;;;3.20;;
74974;SDS011;68459;50.836;19.138;2023-12-29T11:40:34;4.97;;;2.53;;
74974;SDS011;68459;50.836;19.138;2023-12-29T11:43:55;6.15;;;2.90;;
74974;SDS011;68459;50.836;19.138;2023-12-29T11:47:00;5.15;;;2.40;;
74974;SDS011;68459;50.836;19.138;2023-12-29T11:50:05;3.45;;;2.20;;
74974;SDS011;68459;50.836;19.138;2023-12-29T11:53:09;6.85;;;3.33;;
74974;SDS011;68459;50.836;19.138;2023-12-29T11:56:36;5.20;;;2.60;;
74974;SDS011;68459;50.836;19.138;2023-12-29T11:59:46;3.97;;;2.33;;
74974;SDS011;68459;50.836;19.138;2023-12-29T12:02:50;4.83;;;2.50;;
74974;SDS011;68459;50.836;19.138;2023-12-29T12:05:55;6.55;;;2.95;;
74974;SDS011;68459;50.836;19.138;2023-12-29T12:12:40;5.53;;;2.37;;
74974;SDS011;68459;50.836;19.138;2023-12-29T12:15:45;5.50;;;2.67;;
74974;SDS011;68459;50.836;19.138;2023-12-29T12:18:49;4.22;;;2.53;;
74974;SDS011;68459;50.836;19.138;2023-12-29T12:21:53;4.70;;;2.60;;
74974;SDS011;68459;50.836;19.138;2023-12-29T12:25:00;5.95;;;2.80;;
74974;SDS011;68459;50.836;19.138;2023-12-29T12:28:05;5.72;;;2.78;;
74974;SDS011;68459;50.836;19.138;2023-12-29T12:31:11;6.55;;;2.22;;
74974;SDS011;68459;50.836;19.138;2023-12-29T12:34:24;5.38;;;2.38;;
74974;SDS011;68459;50.836;19.138;2023-12-29T12:37:29;6.10;;;2.60;;
74974;SDS011;68459;50.836;19.138;2023-12-29T12:40:33;3.40;;;2.03;;
74974;SDS011;68459;50.836;19.138;2023-12-29T12:43:37;3.65;;;2.13;;
74974;SDS011;68459;50.836;19.138;2023-12-29T12:46:49;3.80;;;2.10;;
74974;SDS011;68459;50.836;19.138;2023-12-29T12:49:57;4.32;;;2.30;;
74974;SDS011;68459;50.836;19.138;2023-12-29T12:53:02;5.78;;;2.25;;
74974;SDS011;68459;50.836;19.138;2023-12-29T12:56:11;5.60;;;2.70;;
74974;SDS011;68459;50.836;19.138;2023-12-29T12:59:15;5.50;;;2.63;;
74974;SDS011;68459;50.836;19.138;2023-12-29T13:02:19;6.63;;;3.20;;
74974;SDS011;68459;50.836;19.138;2023-12-29T13:05:25;6.30;;;3.15;;
74974;SDS011;68459;50.836;19.138;2023-12-29T13:08:29;8.63;;;2.87;;
74974;SDS011;68459;50.836;19.138;2023-12-29T13:11:43;7.35;;;2.97;;
74974;SDS011;68459;50.836;19.138;2023-12-29T13:14:47;5.68;;;2.72;;
74974;SDS011;68459;50.836;19.138;2023-12-29T13:17:51;4.45;;;2.78;;
74974;SDS011;68459;50.836;19.138;2023-12-29T13:20:56;5.82;;;2.70;;
74974;SDS011;68459;50.836;19.138;2023-12-29T13:24:03;3.72;;;2.22;;
74974;SDS011;68459;50.836;19.138;2023-12-29T13:27:07;5.15;;;2.00;;
74974;SDS011;68459;50.836;19.138;2023-12-29T13:30:11;5.93;;;3.10;;
74974;SDS011;68459;50.836;19.138;2023-12-29T13:33:18;6.85;;;2.53;;
74974;SDS011;68459;50.836;19.138;2023-12-29T13:36:35;5.70;;;2.15;;
74974;SDS011;68459;50.836;19.138;2023-12-29T13:39:46;5.00;;;2.60;;
74974;SDS011;68459;50.836;19.138;2023-12-29T13:42:58;6.30;;;2.92;;
74974;SDS011;68459;50.836;19.138;2023-12-29T13:46:06;5.32;;;2.60;;
74974;SDS011;68459;50.836;19.138;2023-12-29T13:49:09;6.25;;;2.85;;
74974;SDS011;68459;50.836;19.138;2023-12-29T13:52:15;5.90;;;2.70;;
74974;SDS011;68459;50.836;19.138;2023-12-29T13:55:21;8.63;;;3.53;;
74974;SDS011;68459;50.836;19.138;2023-12-29T13:58:25;4.57;;;2.70;;
74974;SDS011;68459;50.836;19.138;2023-12-29T14:01:29;8.63;;;3.10;;
74974;SDS011;68459;50.836;19.138;2023-12-29T14:04:39;6.00;;;3.20;;
74974;SDS011;68459;50.836;19.138;2023-12-29T14:07:45;6.05;;;2.90;;
74974;SDS011;68459;50.836;19.138;2023-12-29T14:10:56;9.53;;;2.97;;
74974;SDS011;68459;50.836;19.138;2023-12-29T14:14:00;7.72;;;3.50;;
74974;SDS011;68459;50.836;19.138;2023-12-29T14:17:04;7.93;;;3.10;;
74974;SDS011;68459;50.836;19.138;2023-12-29T14:20:08;7.68;;;3.13;;
74974;SDS011;68459;50.836;19.138;2023-12-29T14:23:14;6.30;;;2.90;;
74974;SDS011;68459;50.836;19.138;2023-12-29T14:26:21;8.63;;;4.05;;
74974;SDS011;68459;50.836;19.138;2023-12-29T14:29:25;8.50;;;3.88;;
74974;SDS011;68459;50.836;19.138;2023-12-29T14:32:29;6.40;;;3.40;;
74974;SDS011;68459;50.836;19.138;2023-12-29T14:35:34;10.30;;;3.65;;
74974;SDS011;68459;50.836;19.138;2023-12-29T14:38:39;8.18;;;3.70;;
74974;SDS011;68459;50.836;19.138;2023-12-29T14:41:43;9.30;;;4.80;;
74974;SDS011;68459;50.836;19.138;2023-12-29T14:44:48;7.80;;;3.88;;
74974;SDS011;68459;50.836;19.138;2023-12-29T14:47:52;10.60;;;4.35;;
74974;SDS011;68459;50.836;19.138;2023-12-29T14:50:56;8.77;;;4.10;;
74974;SDS011;68459;50.836;19.138;2023-12-29T14:54:02;8.60;;;4.57;;
74974;SDS011;68459;50.836;19.138;2023-12-29T14:57:06;8.85;;;4.68;;
74974;SDS011;68459;50.836;19.138;2023-12-29T15:00:19;10.32;;;4.63;;
74974;SDS011;68459;50.836;19.138;2023-12-29T15:03:23;12.67;;;5.30;;
74974;SDS011;68459;50.836;19.138;2023-12-29T15:06:27;10.15;;;4.43;;
74974;SDS011;68459;50.836;19.138;2023-12-29T15:09:32;11.23;;;5.57;;
74974;SDS011;68459;50.836;19.138;2023-12-29T15:12:38;16.00;;;5.90;;
74974;SDS011;68459;50.836;19.138;2023-12-29T15:15:42;11.90;;;5.85;;
74974;SDS011;68459;50.836;19.138;2023-12-29T15:18:46;17.92;;;7.15;;
74974;SDS011;68459;50.836;19.138;2023-12-29T15:21:50;16.05;;;6.95;;
74974;SDS011;68459;50.836;19.138;2023-12-29T15:24:57;14.23;;;7.55;;
74974;SDS011;68459;50.836;19.138;2023-12-29T15:28:01;19.33;;;8.38;;
74974;SDS011;68459;50.836;19.138;2023-12-29T15:31:05;14.15;;;6.95;;
74974;SDS011;68459;50.836;19.138;2023-12-29T15:34:10;18.87;;;8.37;;
74974;SDS011;68459;50.836;19.138;2023-12-29T15:37:14;20.23;;;9.10;;
74974;SDS011;68459;50.836;19.138;2023-12-29T15:40:19;22.25;;;9.73;;
74974;SDS011;68459;50.836;19.138;2023-12-29T15:43:23;20.33;;;9.97;;
74974;SDS011;68459;50.836;19.138;2023-12-29T15:46:31;25.45;;;11.75;;
74974;SDS011;68459;50.836;19.138;2023-12-29T15:49:36;29.13;;;11.48;;
74974;SDS011;68459;50.836;19.138;2023-12-29T15:52:40;25.02;;;11.27;;
74974;SDS011;68459;50.836;19.138;2023-12-29T15:55:46;20.65;;;10.05;;
74974;SDS011;68459;50.836;19.138;2023-12-29T15:58:49;23.38;;;11.63;;
74974;SDS011;68459;50.836;19.138;2023-12-29T16:01:53;28.30;;;11.10;;
74974;SDS011;68459;50.836;19.138;2023-12-29T16:04:57;18.40;;;9.53;;
74974;SDS011;68459;50.836;19.138;2023-12-29T16:08:02;22.70;;;10.07;;
74974;SDS011;68459;50.836;19.138;2023-12-29T16:11:08;27.50;;;11.23;;
74974;SDS011;68459;50.836;19.138;2023-12-29T16:14:12;24.00;;;11.43;;
74974;SDS011;68459;50.836;19.138;2023-12-29T16:17:15;30.55;;;14.38;;
74974;SDS011;68459;50.836;19.138;2023-12-29T16:20:19;35.10;;;17.20;;
74974;SDS011;68459;50.836;19.138;2023-12-29T16:23:23;35.28;;;17.27;;
74974;SDS011;68459;50.836;19.138;2023-12-29T16:26:28;30.83;;;15.85;;
74974;SDS011;68459;50.836;19.138;2023-12-29T16:29:43;30.92;;;13.70;;
74974;SDS011;68459;50.836;19.138;2023-12-29T16:32:47;24.75;;;11.65;;
74974;SDS011;68459;50.836;19.138;2023-12-29T16:35:51;25.67;;;10.90;;
74974;SDS011;68459;50.836;19.138;2023-12-29T16:38:55;24.33;;;11.55;;
74974;SDS011;68459;50.836;19.138;2023-12-29T16:42:00;21.52;;;11.27;;
74974;SDS011;68459;50.836;19.138;2023-12-29T16:45:06;20.67;;;9.53;;
74974;SDS011;68459;50.836;19.138;2023-12-29T16:48:11;26.25;;;11.00;;
74974;SDS011;68459;50.836;19.138;2023-12-29T16:51:15;23.60;;;11.02;;
74974;SDS011;68459;50.836;19.138;2023-12-29T16:54:19;39.92;;;15.05;;
74974;SDS011;68459;50.836;19.138;2023-12-29T16:57:24;33.67;;;15.23;;
74974;SDS011;68459;50.836;19.138;2023-12-29T17:00:28;33.50;;;15.38;;
74974;SDS011;68459;50.836;19.138;2023-12-29T17:03:32;27.48;;;13.35;;
74974;SDS011;68459;50.836;19.138;2023-12-29T17:06:36;21.43;;;10.80;;
74974;SDS011;68459;50.836;19.138;2023-12-29T17:09:41;19.65;;;9.77;;
74974;SDS011;68459;50.836;19.138;2023-12-29T17:12:47;21.65;;;10.00;;
74974;SDS011;68459;50.836;19.138;2023-12-29T17:15:54;23.30;;;8.53;;
74974;SDS011;68459;50.836;19.138;2023-12-29T17:18:57;17.02;;;8.48;;
74974;SDS011;68459;50.836;19.138;2023-12-29T17:22:01;19.20;;;8.85;;
74974;SDS011;68459;50.836;19.138;2023-12-29T17:25:07;17.20;;;8.55;;
74974;SDS011;68459;50.836;19.138;2023-12-29T17:28:13;18.55;;;8.70;;
74974;SDS011;68459;50.836;19.138;2023-12-29T17:31:16;13.60;;;7.38;;
74974;SDS011;68459;50.836;19.138;2023-12-29T17:34:21;21.75;;;8.98;;
74974;SDS011;68459;50.836;19.138;2023-12-29T17:37:24;17.60;;;9.33;;
74974;SDS011;68459;50.836;19.138;2023-12-29T17:40:33;28.38;;;12.27;;
74974;SDS011;68459;50.836;19.138;2023-12-29T17:43:38;25.08;;;12.07;;
74974;SDS011;68459;50.836;19.138;2023-12-29T17:46:42;26.43;;;14.30;;
74974;SDS011;68459;50.836;19.138;2023-12-29T17:49:46;31.63;;;15.10;;
74974;SDS011;68459;50.836;19.138;2023-12-29T17:52:50;33.15;;;16.48;;
74974;SDS011;68459;50.836;19.138;2023-12-29T17:55:54;30.67;;;16.17;;
74974;SDS011;68459;50.836;19.138;2023-12-29T17:58:59;34.70;;;15.73;;
74974;SDS011;68459;50.836;19.138;2023-12-29T18:02:03;27.75;;;14.32;;
74974;SDS011;68459;50.836;19.138;2023-12-29T18:05:07;27.75;;;13.18;;
74974;SDS011;68459;50.836;19.138;2023-12-29T18:08:11;26.43;;;12.13;;
74974;SDS011;68459;50.836;19.138;2023-12-29T18:11:20;27.83;;;11.85;;
74974;SDS011;68459;50.836;19.138;2023-12-29T18:14:25;23.40;;;11.32;;
74974;SDS011;68459;50.836;19.138;2023-12-29T18:17:29;27.47;;;11.97;;